Yorkville, Illinois
Current Conditions -  °F | °C
As of 5:52 AM on Saturday 25 Oct 2014 (Local Time) from KARR Reporting Station
Haze Haze  
Wind Chill: 58°   Ceiling: 1000
Heat Index: 58°   Visibility: 4mi
Dew Point: 54°   Wind: 7mph
Humidity: 87%   Direction: 280°W
Pressure: 29.93"   Gusts: NA
Location:  41.64°N, 88.45°W
Report Text: KARR 251052Z AUTO 28006KT 4SM BR OVC010 14/12 A2993 RMK AO2 SLP135 T01440122
Loading
Personal Weather Stations






























Interactive Weather Map New forecast layout! Learn more

10-Day Weather Forecast

Advertisements
Track Severe Weather on mobile